createdAt,value
2023-02-01T00:00:09.704Z,6.70
2023-02-01T00:02:41.722Z,6.80
2023-02-01T00:05:11.520Z,6.80
2023-02-01T00:07:40.316Z,7.00
2023-02-01T00:10:10.630Z,7.00
2023-02-01T00:12:38.924Z,6.90
2023-02-01T00:15:08.449Z,6.80
2023-02-01T00:17:37.252Z,6.90
2023-02-01T00:20:09.412Z,6.90
2023-02-01T00:22:37.728Z,6.60
2023-02-01T00:25:07.647Z,6.70
2023-02-01T00:27:36.027Z,6.80
2023-02-01T00:30:05.825Z,6.90
2023-02-01T00:32:34.415Z,6.50
2023-02-01T00:35:02.977Z,6.60
2023-02-01T00:37:32.618Z,6.50
2023-02-01T00:40:01.168Z,6.70
2023-02-01T00:42:29.355Z,6.40
2023-02-01T00:44:58.717Z,6.60
2023-02-01T00:47:27.713Z,6.60
2023-02-01T00:49:56.244Z,6.50
2023-02-01T00:52:24.654Z,6.60
2023-02-01T00:54:54.367Z,6.40
2023-02-01T00:57:22.765Z,6.60
2023-02-01T00:59:51.426Z,6.60
2023-02-01T01:02:19.926Z,6.60
2023-02-01T01:04:48.589Z,6.50
2023-02-01T01:07:16.799Z,6.60
2023-02-01T01:09:45.443Z,6.50
2023-02-01T01:12:15.095Z,6.40
2023-02-01T01:14:43.596Z,6.50
2023-02-01T01:17:11.922Z,6.60
2023-02-01T01:19:40.292Z,6.80
2023-02-01T01:22:08.576Z,6.70
2023-02-01T01:24:37.037Z,6.60
2023-02-01T01:27:06.021Z,6.80
2023-02-01T01:29:35.628Z,6.80
2023-02-01T01:32:04.092Z,6.80
2023-02-01T01:34:32.356Z,6.80
2023-02-01T01:37:00.842Z,7.00
2023-02-01T01:39:29.443Z,7.00
2023-02-01T01:41:58.293Z,6.80
2023-02-01T01:44:59.800Z,6.80
2023-02-01T01:47:33.806Z,6.80
2023-02-01T01:50:03.310Z,6.70
2023-02-01T01:52:32.476Z,6.90
2023-02-01T01:55:01.427Z,6.90
2023-02-01T01:57:36.791Z,6.80
2023-02-01T02:00:12.242Z,7.00
2023-02-01T02:02:41.816Z,7.00
2023-02-01T02:05:11.071Z,7.00
2023-02-01T02:07:43.793Z,7.00
2023-02-01T02:10:13.691Z,6.90
2023-02-01T02:12:44.225Z,7.10
2023-02-01T02:15:16.115Z,7.00
2023-02-01T02:17:52.923Z,7.00
2023-02-01T02:20:47.591Z,7.10
2023-02-01T02:23:52.638Z,7.00
2023-02-01T02:26:38.520Z,7.10
2023-02-01T02:29:46.295Z,7.10
2023-02-01T02:32:53.004Z,7.00
2023-02-01T02:35:32.363Z,7.00
2023-02-01T02:38:10.246Z,7.20
2023-02-01T02:40:47.474Z,7.10
2023-02-01T02:43:50.180Z,7.10
2023-02-01T02:46:42.692Z,7.10
2023-02-01T02:49:16.503Z,7.00
2023-02-01T02:52:08.740Z,7.00
2023-02-01T02:54:52.976Z,7.10
2023-02-01T02:57:43.213Z,6.90
2023-02-01T03:00:31.659Z,6.80
2023-02-01T03:03:18.239Z,7.00
2023-02-01T03:05:51.431Z,6.70
2023-02-01T03:08:23.099Z,7.00
2023-02-01T03:10:57.332Z,7.00
2023-02-01T03:13:37.509Z,6.90
2023-02-01T03:16:14.439Z,6.90
2023-02-01T03:18:50.551Z,6.90
2023-02-01T03:21:25.437Z,6.80
2023-02-01T03:23:57.000Z,6.80
2023-02-01T03:26:27.741Z,6.80
2023-02-01T03:28:59.513Z,6.80
2023-02-01T03:31:30.824Z,6.90
2023-02-01T03:34:00.085Z,6.80
2023-02-01T03:36:33.141Z,6.70
2023-02-01T03:39:09.420Z,6.50
2023-02-01T03:41:42.390Z,6.80
2023-02-01T03:44:17.932Z,6.70
2023-02-01T03:46:51.459Z,6.80
2023-02-01T03:49:25.734Z,6.70
2023-02-01T03:51:55.879Z,6.70
2023-02-01T03:54:27.788Z,6.70
2023-02-01T03:56:59.846Z,6.50
2023-02-01T03:59:28.628Z,6.70
2023-02-01T04:01:57.236Z,6.80
2023-02-01T04:04:26.695Z,6.70
2023-02-01T04:06:54.983Z,6.70
2023-02-01T04:09:25.104Z,6.70
2023-02-01T04:11:53.607Z,6.70
2023-02-01T04:14:22.152Z,6.60
2023-02-01T04:16:50.652Z,6.50
2023-02-01T04:19:19.650Z,6.70
2023-02-01T04:21:49.074Z,6.70
2023-02-01T04:24:18.487Z,6.70
2023-02-01T04:26:51.707Z,6.70
2023-02-01T04:29:21.720Z,6.70
2023-02-01T04:31:51.512Z,6.70
2023-02-01T04:34:20.907Z,6.80
2023-02-01T04:36:49.505Z,6.90
2023-02-01T04:39:18.115Z,6.80
2023-02-01T04:41:47.162Z,7.00
2023-02-01T04:44:21.148Z,6.70
2023-02-01T04:46:52.008Z,6.70
2023-02-01T04:49:22.510Z,6.80
2023-02-01T04:51:50.897Z,6.90
2023-02-01T04:54:20.204Z,6.80
2023-02-01T04:56:48.512Z,6.80
2023-02-01T04:59:18.731Z,6.80
2023-02-01T05:01:48.911Z,6.90
2023-02-01T05:04:19.624Z,6.90
2023-02-01T05:06:48.539Z,6.70
2023-02-01T05:09:17.743Z,7.00
2023-02-01T05:12:03.942Z,6.90
2023-02-01T05:14:34.253Z,6.80
2023-02-01T05:17:02.757Z,6.80
2023-02-01T05:19:34.360Z,6.70
2023-02-01T05:22:03.394Z,6.90
2023-02-01T05:24:35.830Z,6.90
2023-02-01T05:27:06.059Z,6.80
2023-02-01T05:29:36.103Z,6.80
2023-02-01T05:32:20.666Z,6.80
2023-02-01T05:34:50.658Z,6.80
2023-02-01T05:37:19.562Z,6.80
2023-02-01T05:39:48.258Z,6.60
2023-02-01T05:42:17.482Z,6.80
2023-02-01T05:44:47.454Z,6.80
2023-02-01T05:47:17.062Z,6.60
2023-02-01T05:49:46.713Z,6.70
2023-02-01T05:52:20.080Z,6.80
2023-02-01T05:54:49.301Z,6.70
2023-02-01T05:57:18.263Z,6.80
2023-02-01T05:59:49.569Z,6.80
2023-02-01T06:02:18.882Z,6.80
2023-02-01T06:04:51.433Z,6.40
2023-02-01T06:07:23.646Z,6.70
2023-02-01T06:09:53.416Z,6.70
2023-02-01T06:12:23.165Z,6.50
2023-02-01T06:14:53.385Z,6.50
2023-02-01T06:17:22.329Z,6.50
2023-02-01T06:19:51.279Z,6.50
2023-02-01T06:22:20.597Z,6.30
2023-02-01T06:24:51.343Z,6.70
2023-02-01T06:27:20.293Z,6.40
2023-02-01T06:29:49.713Z,6.50
2023-02-01T06:32:20.230Z,6.50
2023-02-01T06:34:49.499Z,6.30
2023-02-01T06:37:18.564Z,6.40
2023-02-01T06:39:46.906Z,6.20
2023-02-01T06:42:17.034Z,6.40
2023-02-01T06:44:45.513Z,6.40
2023-02-01T06:47:32.176Z,6.30
2023-02-01T06:50:03.410Z,6.40
2023-02-01T06:52:31.942Z,6.40
2023-02-01T06:55:00.530Z,6.40
2023-02-01T06:57:32.732Z,6.50
2023-02-01T07:00:01.345Z,6.40
2023-02-01T07:02:31.926Z,6.60
2023-02-01T07:05:00.901Z,6.60
2023-02-01T07:07:29.927Z,6.60
2023-02-01T07:09:58.742Z,6.60
2023-02-01T07:12:26.985Z,6.50
2023-02-01T07:15:05.589Z,6.60
2023-02-01T07:17:37.243Z,6.70
2023-02-01T07:20:07.390Z,6.60
2023-02-01T07:22:37.537Z,6.60
2023-02-01T07:25:09.999Z,6.70
2023-02-01T07:27:40.115Z,6.60
2023-02-01T07:30:12.411Z,6.70
2023-02-01T07:32:43.261Z,6.50
2023-02-01T07:35:20.167Z,6.70
2023-02-01T07:38:00.224Z,6.70
2023-02-01T07:40:33.529Z,6.70
2023-02-01T07:43:03.642Z,6.70
2023-02-01T07:45:31.927Z,6.70
2023-02-01T07:48:01.815Z,6.60
2023-02-01T07:50:30.428Z,6.70
2023-02-01T07:53:01.565Z,6.70
2023-02-01T07:55:30.275Z,6.70
2023-02-01T07:58:01.446Z,6.90
2023-02-01T08:00:47.412Z,6.80
2023-02-01T08:03:17.453Z,7.00
2023-02-01T08:05:46.097Z,6.80
2023-02-01T08:08:14.915Z,7.00
2023-02-01T08:10:43.237Z,7.10
2023-02-01T08:13:11.850Z,7.20
2023-02-01T08:15:41.331Z,7.00
2023-02-01T08:18:11.058Z,7.10
2023-02-01T08:20:42.429Z,7.00
2023-02-01T08:23:11.252Z,6.90
2023-02-01T08:25:39.844Z,7.10
2023-02-01T08:28:08.498Z,7.00
2023-02-01T08:30:38.499Z,7.20
2023-02-01T08:33:08.103Z,7.20
2023-02-01T08:35:43.259Z,7.00
2023-02-01T08:38:13.636Z,7.20
2023-02-01T08:40:42.636Z,7.10
2023-02-01T08:43:11.552Z,7.20
2023-02-01T08:45:42.153Z,7.10
2023-02-01T08:48:10.693Z,7.10
2023-02-01T08:50:39.278Z,7.20
2023-02-01T08:53:07.652Z,7.00
2023-02-01T08:55:37.602Z,7.10
2023-02-01T08:58:05.943Z,7.20
2023-02-01T09:00:34.580Z,7.20
2023-02-01T09:03:03.160Z,7.10
2023-02-01T09:05:47.542Z,7.30
2023-02-01T09:08:17.687Z,7.40
2023-02-01T09:10:47.465Z,7.40
2023-02-01T09:13:15.938Z,7.20
2023-02-01T09:15:44.438Z,7.50
2023-02-01T09:18:13.310Z,7.40
2023-02-01T09:20:41.945Z,7.50
2023-02-01T09:23:10.397Z,7.60
2023-02-01T09:25:40.554Z,7.50
2023-02-01T09:28:10.376Z,7.50
2023-02-01T09:30:39.748Z,7.60
2023-02-01T09:33:08.768Z,7.50
2023-02-01T09:35:37.184Z,7.70
2023-02-01T09:38:05.792Z,7.70
2023-02-01T09:40:36.413Z,7.70
2023-02-01T09:43:22.148Z,7.70
2023-02-01T09:45:57.800Z,7.80
2023-02-01T09:48:33.316Z,7.90
2023-02-01T09:51:04.675Z,7.90
2023-02-01T09:53:36.575Z,7.90
2023-02-01T09:56:08.344Z,8.10
2023-02-01T09:58:43.161Z,7.90
2023-02-01T10:01:17.495Z,8.10
2023-02-01T10:03:46.072Z,8.00
2023-02-01T10:06:43.314Z,8.10
2023-02-01T10:09:31.862Z,8.20
2023-02-01T10:12:17.344Z,8.30
2023-02-01T10:15:00.160Z,8.20
2023-02-01T10:17:44.905Z,8.30
2023-02-01T10:20:20.489Z,8.40
2023-02-01T10:23:16.364Z,8.40
2023-02-01T10:25:54.458Z,8.40
2023-02-01T10:28:25.126Z,8.40
2023-02-01T10:30:59.774Z,8.40
2023-02-01T10:33:32.351Z,8.50
2023-02-01T10:36:08.060Z,8.50
2023-02-01T10:38:37.556Z,8.40
2023-02-01T10:41:14.127Z,8.50
2023-02-01T10:43:44.055Z,8.50
2023-02-01T10:46:14.072Z,8.60
2023-02-01T10:48:42.599Z,8.50
2023-02-01T10:51:17.103Z,8.60
2023-02-01T10:53:52.288Z,8.60
2023-02-01T10:56:25.664Z,8.60
2023-02-01T10:59:03.038Z,8.70
2023-02-01T11:01:39.714Z,8.70
2023-02-01T11:04:13.767Z,8.70
2023-02-01T11:06:43.948Z,8.70
2023-02-01T11:09:21.451Z,8.70
2023-02-01T11:11:59.351Z,8.70
2023-02-01T11:14:37.140Z,8.90
2023-02-01T11:17:24.892Z,8.90
2023-02-01T11:20:00.921Z,8.90
2023-02-01T11:22:30.637Z,8.90
2023-02-01T11:25:00.210Z,9.00
2023-02-01T11:27:29.692Z,9.10
2023-02-01T11:30:03.232Z,9.10
2023-02-01T11:32:33.494Z,9.30
2023-02-01T11:35:04.899Z,9.30
2023-02-01T11:37:37.661Z,9.40
2023-02-01T11:40:27.768Z,9.40
2023-02-01T11:42:58.737Z,9.40
2023-02-01T11:45:29.634Z,9.40
2023-02-01T11:48:01.528Z,9.40
2023-02-01T11:50:37.835Z,9.30
2023-02-01T11:53:27.561Z,9.30
2023-02-01T11:56:06.248Z,9.40
2023-02-01T11:58:58.378Z,9.40
2023-02-01T12:01:43.043Z,9.30
2023-02-01T12:04:50.940Z,9.40
2023-02-01T12:07:24.721Z,9.30
2023-02-01T12:10:08.052Z,9.30
2023-02-01T12:12:45.949Z,9.30
2023-02-01T12:15:32.418Z,9.30
2023-02-01T12:18:17.398Z,9.20
2023-02-01T12:21:06.829Z,9.20
2023-02-01T12:24:03.581Z,9.20
2023-02-01T12:26:44.536Z,9.30
2023-02-01T12:29:43.762Z,9.30
2023-02-01T12:32:25.577Z,9.20
2023-02-01T12:35:13.404Z,9.30
2023-02-01T12:38:00.024Z,9.20
2023-02-01T12:40:41.846Z,9.10
2023-02-01T12:43:18.391Z,9.20
2023-02-01T12:45:51.997Z,9.20
2023-02-01T12:48:32.344Z,9.20
2023-02-01T12:51:04.479Z,9.20
2023-02-01T12:53:47.028Z,9.20
2023-02-01T12:56:23.831Z,9.30
2023-02-01T12:58:55.655Z,9.30
2023-02-01T13:01:32.072Z,9.30
2023-02-01T13:04:10.581Z,9.30
2023-02-01T13:06:42.936Z,9.30
2023-02-01T13:09:22.829Z,9.20
2023-02-01T13:11:55.657Z,9.20
2023-02-01T13:14:31.615Z,9.30
2023-02-01T13:17:03.893Z,9.20
2023-02-01T13:19:47.403Z,9.30
2023-02-01T13:22:21.558Z,9.20
2023-02-01T13:24:54.656Z,9.20
2023-02-01T13:27:24.882Z,9.20
2023-02-01T13:29:59.159Z,9.10
2023-02-01T13:33:50.280Z,9.20
2023-02-01T13:36:13.336Z,9.00
2023-02-01T13:39:23.416Z,9.10
2023-02-01T13:41:58.351Z,9.10
2023-02-01T13:44:33.272Z,9.10
2023-02-01T13:47:04.832Z,9.00
2023-02-01T13:49:39.399Z,9.00
2023-02-01T13:52:19.510Z,9.00
2023-02-01T13:54:48.722Z,9.10
2023-02-01T13:57:38.773Z,9.00
2023-02-01T14:00:24.878Z,9.10
2023-02-01T14:03:21.204Z,9.00
2023-02-01T14:06:03.763Z,9.10
2023-02-01T14:08:42.914Z,9.20
2023-02-01T14:11:43.319Z,9.10
2023-02-01T14:14:47.060Z,9.30
2023-02-01T14:17:40.675Z,9.30
2023-02-01T14:20:44.765Z,9.30
2023-02-01T14:23:17.151Z,9.10
2023-02-01T14:26:10.954Z,9.30
2023-02-01T14:28:45.444Z,9.30
2023-02-01T14:31:42.929Z,9.30
2023-02-01T14:34:17.468Z,9.20
2023-02-01T14:36:51.228Z,9.10
2023-02-01T14:39:26.989Z,9.10
2023-02-01T14:41:59.677Z,9.20
2023-02-01T14:44:34.890Z,9.20
2023-02-01T14:47:10.957Z,9.20
2023-02-01T14:49:49.224Z,9.20
2023-02-01T14:52:21.088Z,9.30
2023-02-01T14:54:55.133Z,9.20
2023-02-01T14:57:27.740Z,9.20
2023-02-01T15:00:08.375Z,9.30
2023-02-01T15:02:41.115Z,9.10
2023-02-01T15:05:26.554Z,9.10
2023-02-01T15:07:55.629Z,9.10
2023-02-01T15:10:25.846Z,9.00
2023-02-01T15:12:54.214Z,8.90
2023-02-01T15:15:25.073Z,9.00
2023-02-01T15:17:58.089Z,9.00
2023-02-01T15:20:28.443Z,9.00
2023-02-01T15:22:59.339Z,9.00
2023-02-01T15:25:30.314Z,8.90
2023-02-01T15:27:59.879Z,8.90
2023-02-01T15:30:31.381Z,8.90
2023-02-01T15:33:19.147Z,8.90
2023-02-01T15:35:50.752Z,8.90
2023-02-01T15:38:36.605Z,8.80
2023-02-01T15:41:09.192Z,8.80
2023-02-01T15:43:40.921Z,8.80
2023-02-01T15:46:13.381Z,8.80
2023-02-01T15:48:46.806Z,8.80
2023-02-01T15:51:21.110Z,8.80
2023-02-01T15:53:53.820Z,8.70
2023-02-01T15:56:31.788Z,8.70
2023-02-01T15:59:02.815Z,8.80
2023-02-01T16:01:32.045Z,8.70
2023-02-01T16:04:20.987Z,8.70
2023-02-01T16:06:52.472Z,8.60
2023-02-01T16:09:23.161Z,8.50
2023-02-01T16:11:57.440Z,8.50
2023-02-01T16:14:26.792Z,8.50
2023-02-01T16:16:58.298Z,8.50
2023-02-01T16:19:29.548Z,8.50
2023-02-01T16:21:59.298Z,8.50
2023-02-01T16:24:28.827Z,8.40
2023-02-01T16:26:58.048Z,8.40
2023-02-01T16:29:26.603Z,8.30
2023-02-01T16:31:55.210Z,8.30
2023-02-01T16:34:23.666Z,8.20
2023-02-01T16:36:57.913Z,8.40
2023-02-01T16:39:28.615Z,8.30
2023-02-01T16:41:57.935Z,8.30
2023-02-01T16:44:27.457Z,8.30
2023-02-01T16:46:56.304Z,8.20
2023-02-01T16:49:26.443Z,8.30
2023-02-01T16:51:59.869Z,8.30
2023-02-01T16:54:28.831Z,8.20
2023-02-01T16:56:57.108Z,8.30
2023-02-01T16:59:25.598Z,8.20
2023-02-01T17:01:54.386Z,8.30
2023-02-01T17:04:23.131Z,8.30
2023-02-01T17:06:51.659Z,8.40
2023-02-01T17:09:23.363Z,8.30
2023-02-01T17:11:51.568Z,8.30
2023-02-01T17:14:22.424Z,8.30
2023-02-01T17:16:52.731Z,8.20
2023-02-01T17:19:25.309Z,8.30
2023-02-01T17:21:56.679Z,8.30
2023-02-01T17:24:35.893Z,8.20
2023-02-01T17:27:11.788Z,8.10
2023-02-01T17:29:41.161Z,7.90
2023-02-01T17:32:18.097Z,7.80
2023-02-01T17:34:46.547Z,7.70
2023-02-01T17:37:24.656Z,7.70
2023-02-01T17:39:58.322Z,7.60
2023-02-01T17:42:28.381Z,7.80
2023-02-01T17:44:59.241Z,7.60
2023-02-01T17:47:27.656Z,7.50
2023-02-01T17:49:57.462Z,7.50
2023-02-01T17:52:27.416Z,7.40
2023-02-01T17:54:58.062Z,7.40
2023-02-01T17:57:26.406Z,7.30
2023-02-01T17:59:54.859Z,7.30
2023-02-01T18:02:25.460Z,7.20
2023-02-01T18:04:54.297Z,7.00
2023-02-01T18:07:23.064Z,7.10
2023-02-01T18:09:51.449Z,7.00
2023-02-01T18:12:23.109Z,7.00
2023-02-01T18:14:51.469Z,7.10
2023-02-01T18:17:20.101Z,7.00
2023-02-01T18:19:48.328Z,7.10
2023-02-01T18:22:20.051Z,6.90
2023-02-01T18:24:48.365Z,7.10
2023-02-01T18:27:16.681Z,6.80
2023-02-01T18:29:47.067Z,6.90
2023-02-01T18:32:15.688Z,6.70
2023-02-01T18:34:43.986Z,6.70
2023-02-01T18:37:12.538Z,6.50
2023-02-01T18:39:40.887Z,6.80
2023-02-01T18:42:12.065Z,6.70
2023-02-01T18:44:40.800Z,6.70
2023-02-01T18:47:11.083Z,6.80
2023-02-01T18:49:39.521Z,6.60
2023-02-01T18:52:07.821Z,6.70
2023-02-01T18:54:36.473Z,6.60
2023-02-01T18:57:06.647Z,6.60
2023-02-01T18:59:34.938Z,6.60
2023-02-01T19:02:04.260Z,6.80
2023-02-01T19:04:33.977Z,6.60
2023-02-01T19:07:02.807Z,6.70
2023-02-01T19:09:32.210Z,6.70
2023-02-01T19:12:00.646Z,6.70
2023-02-01T19:14:29.183Z,6.60
2023-02-01T19:16:58.360Z,6.60
2023-02-01T19:19:27.885Z,6.60
2023-02-01T19:21:57.689Z,6.70
2023-02-01T19:24:28.220Z,6.70
2023-02-01T19:27:00.346Z,6.70
2023-02-01T19:29:31.615Z,6.70
2023-02-01T19:32:05.568Z,6.70
2023-02-01T19:34:41.567Z,6.70
2023-02-01T19:37:13.768Z,6.50
2023-02-01T19:39:44.101Z,6.40
2023-02-01T19:42:12.677Z,6.40
2023-02-01T19:44:41.676Z,6.60
2023-02-01T19:47:11.632Z,6.40
2023-02-01T19:49:40.547Z,6.40
2023-02-01T19:52:08.907Z,6.50
2023-02-01T19:54:39.409Z,6.50
2023-02-01T19:57:08.702Z,6.50
2023-02-01T19:59:39.768Z,6.40
2023-02-01T20:02:13.703Z,6.50
2023-02-01T20:04:43.135Z,6.40
2023-02-01T20:07:12.178Z,6.40
2023-02-01T20:09:45.422Z,6.40
2023-02-01T20:12:15.096Z,6.20
2023-02-01T20:14:47.584Z,6.40
2023-02-01T20:17:17.774Z,6.40
2023-02-01T20:19:46.111Z,6.40
2023-02-01T20:22:16.442Z,6.40
2023-02-01T20:24:50.024Z,6.40
2023-02-01T20:27:19.323Z,6.40
2023-02-01T20:29:49.843Z,6.60
2023-02-01T20:32:20.664Z,6.50
2023-02-01T20:34:53.533Z,6.40
2023-02-01T20:37:22.439Z,6.30
2023-02-01T20:39:52.107Z,6.40
2023-02-01T20:42:20.833Z,6.40
2023-02-01T20:44:49.252Z,6.50
2023-02-01T20:47:20.397Z,6.30
2023-02-01T20:49:50.613Z,6.40
2023-02-01T20:52:20.046Z,6.50
2023-02-01T20:54:52.357Z,6.30
2023-02-01T20:57:21.682Z,6.50
2023-02-01T20:59:51.195Z,6.30
2023-02-01T21:02:22.482Z,6.60
2023-02-01T21:04:51.599Z,6.30
2023-02-01T21:07:22.755Z,6.40
2023-02-01T21:09:54.749Z,6.40
2023-02-01T21:12:23.540Z,6.30
2023-02-01T21:14:55.268Z,6.30
2023-02-01T21:17:28.605Z,6.40
2023-02-01T21:19:57.544Z,6.30
2023-02-01T21:22:30.632Z,6.50
2023-02-01T21:25:02.159Z,6.40
2023-02-01T21:27:30.988Z,6.40
2023-02-01T21:29:59.435Z,6.20
2023-02-01T21:32:28.074Z,6.40
2023-02-01T21:34:58.540Z,6.40
2023-02-01T21:37:29.721Z,6.10
2023-02-01T21:39:58.308Z,6.40
2023-02-01T21:42:28.635Z,6.20
2023-02-01T21:44:59.433Z,6.40
2023-02-01T21:47:29.790Z,6.50
2023-02-01T21:49:58.563Z,6.40
2023-02-01T21:52:27.928Z,6.40
2023-02-01T21:54:59.536Z,6.30
2023-02-01T21:57:31.133Z,6.50
2023-02-01T21:59:59.768Z,6.30
2023-02-01T22:02:28.204Z,6.30
2023-02-01T22:04:57.694Z,6.40
2023-02-01T22:07:25.975Z,6.30
2023-02-01T22:09:54.375Z,6.40
2023-02-01T22:12:24.029Z,6.50
2023-02-01T22:14:54.363Z,6.40
2023-02-01T22:17:22.737Z,6.30
2023-02-01T22:19:51.054Z,6.40
2023-02-01T22:22:20.963Z,6.50
2023-02-01T22:24:49.233Z,6.60
2023-02-01T22:27:18.460Z,6.20
2023-02-01T22:29:46.845Z,6.40
2023-02-01T22:32:16.949Z,6.40
2023-02-01T22:34:45.135Z,6.20
2023-02-01T22:37:13.596Z,6.20
2023-02-01T22:39:41.985Z,6.30
2023-02-01T22:42:10.464Z,6.20
2023-02-01T22:44:40.685Z,6.20
2023-02-01T22:47:09.632Z,6.20
2023-02-01T22:49:39.402Z,6.40
2023-02-01T22:52:07.681Z,6.20
2023-02-01T22:54:36.194Z,6.20
2023-02-01T22:57:04.547Z,6.10
2023-02-01T22:59:34.819Z,6.20
2023-02-01T23:02:03.466Z,6.10
2023-02-01T23:04:31.636Z,6.10
2023-02-01T23:07:01.678Z,6.00
2023-02-01T23:09:30.178Z,6.10
2023-02-01T23:11:58.675Z,6.10
2023-02-01T23:14:27.703Z,6.00
2023-02-01T23:16:56.191Z,6.00
2023-02-01T23:19:24.625Z,6.10
2023-02-01T23:21:52.788Z,6.10
2023-02-01T23:24:23.461Z,6.10
2023-02-01T23:26:51.773Z,6.20
2023-02-01T23:29:20.099Z,6.10
2023-02-01T23:31:48.617Z,6.10
2023-02-01T23:34:17.297Z,6.10
2023-02-01T23:37:17.124Z,6.20
2023-02-01T23:39:46.879Z,6.10
2023-02-01T23:42:21.781Z,6.20
2023-02-01T23:44:49.126Z,6.30
2023-02-01T23:47:17.573Z,6.30
2023-02-01T23:49:46.080Z,6.40
2023-02-01T23:52:14.548Z,6.40
2023-02-01T23:54:42.916Z,6.30
2023-02-01T23:57:12.551Z,6.20
2023-02-01T23:59:40.833Z,6.40
